createdAt,value
2022-10-09T00:01:05.380Z,98761.20
2022-10-09T00:03:33.475Z,98759.86
2022-10-09T00:06:00.198Z,98759.44
2022-10-09T00:08:26.948Z,98758.63
2022-10-09T00:10:53.399Z,98757.41
2022-10-09T00:13:20.350Z,98757.69
2022-10-09T00:15:47.179Z,98763.90
2022-10-09T00:18:16.193Z,98765.48
2022-10-09T00:20:45.477Z,98768.45
2022-10-09T00:23:13.658Z,98772.61
2022-10-09T00:25:49.613Z,98774.75
2022-10-09T00:28:16.101Z,98777.95
2022-10-09T00:30:42.840Z,98780.14
2022-10-09T00:33:09.646Z,98783.66
2022-10-09T00:35:39.060Z,98785.74
2022-10-09T00:38:06.930Z,98790.66
2022-10-09T00:40:35.310Z,98794.36
2022-10-09T00:43:02.364Z,98796.17
2022-10-09T00:45:30.146Z,98793.00
2022-10-09T00:48:05.047Z,98795.55
2022-10-09T00:50:43.387Z,98797.52
2022-10-09T00:53:15.406Z,98800.15
2022-10-09T00:55:42.719Z,98798.27
2022-10-09T00:58:12.148Z,98804.04
2022-10-09T01:00:39.596Z,98801.01
2022-10-09T01:03:06.441Z,98801.79
2022-10-09T01:06:12.085Z,98800.14
2022-10-09T01:08:42.007Z,98799.88
2022-10-09T01:11:19.809Z,98800.00
2022-10-09T01:13:57.017Z,98802.81
2022-10-09T01:16:36.138Z,98801.88
2022-10-09T01:19:29.521Z,98802.60
2022-10-09T01:22:31.490Z,98804.25
2022-10-09T01:25:00.782Z,98807.61
2022-10-09T01:27:28.695Z,98806.80
2022-10-09T01:30:02.110Z,98804.25
2022-10-09T01:32:33.299Z,98802.86
2022-10-09T01:35:02.058Z,98807.08
2022-10-09T01:37:31.300Z,98810.00
2022-10-09T01:39:59.391Z,98806.34
2022-10-09T01:42:29.134Z,98812.77
2022-10-09T01:44:55.632Z,98820.27
2022-10-09T01:47:22.170Z,98824.67
2022-10-09T01:50:05.075Z,98824.59
2022-10-09T01:52:41.314Z,98821.48
2022-10-09T01:55:26.541Z,98822.20
2022-10-09T01:58:05.074Z,98827.97
2022-10-09T02:00:38.877Z,98828.83
2022-10-09T02:03:11.441Z,98832.64
2022-10-09T02:05:40.139Z,98840.22
2022-10-09T02:08:07.706Z,98842.83
2022-10-09T02:10:35.697Z,98841.83
2022-10-09T02:13:02.241Z,98846.35
2022-10-09T02:15:38.860Z,98850.70
2022-10-09T02:18:19.811Z,98848.81
2022-10-09T02:20:51.560Z,98850.36
2022-10-09T02:23:19.775Z,98855.42
2022-10-09T02:25:46.772Z,98860.41
2022-10-09T02:28:13.466Z,98867.63
2022-10-09T02:30:50.865Z,98861.10
2022-10-09T02:33:17.558Z,98864.58
2022-10-09T02:35:44.805Z,98861.54
2022-10-09T02:38:11.359Z,98858.40
2022-10-09T02:40:37.900Z,98856.66
2022-10-09T02:43:04.388Z,98864.27
2022-10-09T02:45:30.898Z,98870.12
2022-10-09T02:47:57.523Z,98873.77
2022-10-09T02:50:24.037Z,98885.23
2022-10-09T02:52:51.118Z,98889.55
2022-10-09T02:55:17.823Z,98893.38
2022-10-09T02:57:44.297Z,98893.59
2022-10-09T03:00:11.805Z,98898.32
2022-10-09T03:02:38.356Z,98897.85
2022-10-09T03:05:05.631Z,98899.64
2022-10-09T03:07:32.185Z,98901.12
2022-10-09T03:09:58.740Z,98903.61
2022-10-09T03:12:25.298Z,98905.59
2022-10-09T03:14:51.819Z,98909.27
2022-10-09T03:17:18.306Z,98910.58
2022-10-09T03:19:44.912Z,98916.73
2022-10-09T03:22:11.442Z,98921.80
2022-10-09T03:24:37.878Z,98921.98
2022-10-09T03:27:04.607Z,98925.73
2022-10-09T03:29:31.163Z,98927.23
2022-10-09T03:31:57.699Z,98932.02
2022-10-09T03:34:24.241Z,98932.69
2022-10-09T03:36:50.783Z,98932.96
2022-10-09T03:39:17.494Z,98936.52
2022-10-09T03:41:44.126Z,98942.92
2022-10-09T03:44:10.709Z,98941.11
2022-10-09T03:46:37.383Z,98947.56
2022-10-09T03:49:04.017Z,98949.91
2022-10-09T03:51:30.532Z,98954.00
2022-10-09T03:53:57.181Z,98955.71
2022-10-09T03:56:23.710Z,98964.95
2022-10-09T03:58:50.352Z,98969.60
2022-10-09T04:01:16.973Z,98977.35
2022-10-09T04:03:43.614Z,98977.37
2022-10-09T04:06:10.691Z,98986.23
2022-10-09T04:08:37.433Z,98980.45
2022-10-09T04:11:04.035Z,98987.67
2022-10-09T04:13:31.166Z,98987.64
2022-10-09T04:15:57.827Z,98987.80
2022-10-09T04:18:25.056Z,98994.20
2022-10-09T04:20:53.567Z,98990.52
2022-10-09T04:23:21.088Z,98987.77
2022-10-09T04:25:47.578Z,98987.54
2022-10-09T04:28:14.734Z,98994.52
2022-10-09T04:30:41.411Z,98992.59
2022-10-09T04:33:12.573Z,98996.95
2022-10-09T04:35:46.823Z,98998.20
2022-10-09T04:38:13.618Z,98997.19
2022-10-09T04:40:40.579Z,98999.98
2022-10-09T04:43:07.146Z,98999.64
2022-10-09T04:45:40.488Z,99004.55
2022-10-09T04:48:07.249Z,99008.25
2022-10-09T04:50:33.729Z,99017.73
2022-10-09T04:53:00.229Z,99019.77
2022-10-09T04:55:26.769Z,99024.05
2022-10-09T04:57:53.295Z,99023.05
2022-10-09T05:00:19.849Z,99026.83
2022-10-09T05:02:46.862Z,99033.52
2022-10-09T05:05:14.074Z,99037.93
2022-10-09T05:07:40.482Z,99040.23
2022-10-09T05:10:07.846Z,99039.52
2022-10-09T05:12:34.309Z,99046.42
2022-10-09T05:15:00.868Z,99047.60
2022-10-09T05:17:27.498Z,99049.55
2022-10-09T05:19:54.108Z,99046.83
2022-10-09T05:22:20.849Z,99049.91
2022-10-09T05:24:47.331Z,99051.27
2022-10-09T05:27:13.777Z,99056.08
2022-10-09T05:29:40.371Z,99058.34
2022-10-09T05:32:07.468Z,99057.34
2022-10-09T05:34:34.678Z,99061.13
2022-10-09T05:37:01.189Z,99062.67
2022-10-09T05:39:27.758Z,99064.86
2022-10-09T05:41:54.297Z,99071.73
2022-10-09T05:44:20.943Z,99072.20
2022-10-09T05:46:47.467Z,99074.09
2022-10-09T05:49:14.059Z,99079.71
2022-10-09T05:51:40.985Z,99085.28
2022-10-09T05:54:07.504Z,99090.70
2022-10-09T05:56:39.077Z,99094.33
2022-10-09T05:59:08.256Z,99100.02
2022-10-09T06:01:37.614Z,99103.81
2022-10-09T06:04:05.646Z,99106.19
2022-10-09T06:06:36.780Z,99109.39
2022-10-09T06:09:04.079Z,99114.20
2022-10-09T06:11:35.987Z,99120.77
2022-10-09T06:14:05.174Z,99120.39
2022-10-09T06:16:38.259Z,99130.16
2022-10-09T06:19:06.634Z,99137.58
2022-10-09T06:21:34.576Z,99142.59
2022-10-09T06:24:03.670Z,99148.46
2022-10-09T06:26:31.186Z,99151.02
2022-10-09T06:28:59.616Z,99151.80
2022-10-09T06:31:29.361Z,99162.23
2022-10-09T06:34:01.235Z,99170.02
2022-10-09T06:36:30.809Z,99169.09
2022-10-09T06:38:59.910Z,99169.30
2022-10-09T06:41:28.246Z,99165.66
2022-10-09T06:43:57.515Z,99170.56
2022-10-09T06:46:27.415Z,99183.02
2022-10-09T06:48:54.363Z,99183.34
2022-10-09T06:51:23.005Z,99181.83
2022-10-09T06:53:52.401Z,99183.87
2022-10-09T06:56:20.902Z,99185.60
2022-10-09T06:58:47.899Z,99191.90
2022-10-09T07:01:26.173Z,99189.73
2022-10-09T07:03:55.226Z,99196.62
2022-10-09T07:06:24.335Z,99196.27
2022-10-09T07:08:53.797Z,99197.56
2022-10-09T07:11:23.537Z,99201.16
2022-10-09T07:13:54.999Z,99196.92
2022-10-09T07:16:24.855Z,99205.67
2022-10-09T07:18:52.050Z,99206.73
2022-10-09T07:21:18.812Z,99215.09
2022-10-09T07:23:46.072Z,99215.57
2022-10-09T07:26:16.602Z,99218.70
2022-10-09T07:28:43.861Z,99222.14
2022-10-09T07:31:11.582Z,99225.08
2022-10-09T07:33:38.960Z,99229.89
2022-10-09T07:36:07.074Z,99232.70
2022-10-09T07:38:33.933Z,99236.84
2022-10-09T07:41:03.561Z,99236.58
2022-10-09T07:43:30.485Z,99235.91
2022-10-09T07:46:01.838Z,99228.02
2022-10-09T07:48:28.817Z,99227.06
2022-10-09T07:50:56.059Z,99236.83
2022-10-09T07:53:23.234Z,99237.35
2022-10-09T07:55:49.958Z,99232.68
2022-10-09T07:58:17.664Z,99234.80
2022-10-09T08:00:44.279Z,99233.73
2022-10-09T08:03:10.911Z,99231.61
2022-10-09T08:05:37.654Z,99232.91
2022-10-09T08:08:04.201Z,99237.57
2022-10-09T08:10:32.110Z,99237.65
2022-10-09T08:12:58.866Z,99234.30
2022-10-09T08:15:26.320Z,99235.84
2022-10-09T08:17:54.248Z,99236.84
2022-10-09T08:20:20.897Z,99237.56
2022-10-09T08:22:47.797Z,99241.44
2022-10-09T08:25:14.797Z,99246.02
2022-10-09T08:27:41.353Z,99250.48
2022-10-09T08:30:08.690Z,99251.10
2022-10-09T08:32:35.127Z,99253.68
2022-10-09T08:35:01.876Z,99257.23
2022-10-09T08:37:28.492Z,99255.21
2022-10-09T08:39:54.956Z,99258.36
2022-10-09T08:42:49.642Z,99258.70
2022-10-09T08:45:18.766Z,99261.14
2022-10-09T08:48:01.270Z,99261.62
2022-10-09T08:50:32.528Z,99265.84
2022-10-09T08:53:10.382Z,99259.54
2022-10-09T08:56:09.338Z,99268.25
2022-10-09T08:58:38.702Z,99269.50
2022-10-09T09:01:10.911Z,99280.74
2022-10-09T09:03:52.816Z,99277.20
2022-10-09T09:06:48.837Z,99278.96
2022-10-09T09:09:37.272Z,99278.21
2022-10-09T09:12:22.742Z,99280.02
2022-10-09T09:15:17.827Z,99276.03
2022-10-09T09:18:18.914Z,99276.48
2022-10-09T09:20:54.763Z,99276.73
2022-10-09T09:23:28.959Z,99274.02
2022-10-09T09:25:56.190Z,99279.99
2022-10-09T09:28:29.500Z,99275.27
2022-10-09T09:31:16.617Z,99274.55
2022-10-09T09:33:45.923Z,99276.36
2022-10-09T09:36:39.136Z,99275.96
2022-10-09T09:39:55.691Z,99276.49
2022-10-09T09:41:55.510Z,99279.16
2022-10-09T09:44:22.296Z,99282.03
2022-10-09T09:46:49.388Z,99279.67
2022-10-09T09:49:22.571Z,99273.05
2022-10-09T09:51:50.889Z,99272.89
2022-10-09T09:54:24.647Z,99269.39
2022-10-09T09:57:12.016Z,99267.25
2022-10-09T09:59:42.677Z,99263.45
2022-10-09T10:02:18.099Z,99270.63
2022-10-09T10:04:58.474Z,99269.77
2022-10-09T10:07:36.711Z,99269.89
2022-10-09T10:10:15.219Z,99264.65
2022-10-09T10:12:44.931Z,99269.63
2022-10-09T10:15:23.497Z,99270.64
2022-10-09T10:18:03.709Z,99277.48
2022-10-09T10:20:32.514Z,99277.73
2022-10-09T10:23:00.590Z,99275.11
2022-10-09T10:25:34.065Z,99271.47
2022-10-09T10:28:06.106Z,99268.00
2022-10-09T10:30:35.556Z,99268.73
2022-10-09T10:33:13.667Z,99266.54
2022-10-09T10:35:43.232Z,99264.40
2022-10-09T10:38:29.673Z,99265.61
2022-10-09T10:41:05.612Z,99262.77
2022-10-09T10:43:44.588Z,99264.10
2022-10-09T10:46:26.740Z,99260.89
2022-10-09T10:48:53.738Z,99260.64
2022-10-09T10:51:35.638Z,99258.94
2022-10-09T10:54:17.431Z,99255.28
2022-10-09T10:56:50.891Z,99250.77
2022-10-09T10:59:38.980Z,99246.15
2022-10-09T11:02:11.619Z,99251.05
2022-10-09T11:05:05.971Z,99254.14
2022-10-09T11:08:00.045Z,99253.15
2022-10-09T11:10:51.984Z,99253.98
2022-10-09T11:13:24.479Z,99249.38
2022-10-09T11:16:10.105Z,99247.54
2022-10-09T11:19:01.414Z,99248.44
2022-10-09T11:21:43.173Z,99246.91
2022-10-09T11:24:27.947Z,99244.13
2022-10-09T11:27:06.701Z,99242.27
2022-10-09T11:29:43.705Z,99239.37
2022-10-09T11:32:24.947Z,99236.48
2022-10-09T11:34:59.015Z,99229.73
2022-10-09T11:37:30.939Z,99232.33
2022-10-09T11:39:57.385Z,99221.23
2022-10-09T11:42:26.129Z,99229.33
2022-10-09T11:45:05.047Z,99235.03
2022-10-09T11:47:43.722Z,99231.65
2022-10-09T11:50:25.516Z,99232.09
2022-10-09T11:52:57.688Z,99229.95
2022-10-09T11:55:27.757Z,99226.38
2022-10-09T11:57:54.831Z,99227.09
2022-10-09T12:00:36.835Z,99223.77
2022-10-09T12:03:06.073Z,99223.16
2022-10-09T12:05:41.175Z,99219.52
2022-10-09T12:08:27.274Z,99219.03
2022-10-09T12:11:10.603Z,99217.16
2022-10-09T12:13:36.961Z,99222.46
2022-10-09T12:16:04.988Z,99223.94
2022-10-09T12:18:44.268Z,99222.63
2022-10-09T12:21:40.463Z,99225.95
2022-10-09T12:24:14.011Z,99228.75
2022-10-09T12:26:41.411Z,99227.46
2022-10-09T12:29:18.778Z,99228.52
2022-10-09T12:31:46.917Z,99228.72
2022-10-09T12:34:32.266Z,99227.71
2022-10-09T12:37:17.859Z,99225.65
2022-10-09T12:39:45.751Z,99233.59
2022-10-09T12:42:25.030Z,99232.46
2022-10-09T12:44:55.084Z,99230.91
2022-10-09T12:47:27.868Z,99230.48
2022-10-09T12:49:55.228Z,99228.42
2022-10-09T12:52:21.734Z,99230.54
2022-10-09T12:54:48.414Z,99234.96
2022-10-09T12:57:16.389Z,99229.63
2022-10-09T12:59:44.978Z,99232.43
2022-10-09T13:02:14.402Z,99228.05
2022-10-09T13:04:41.229Z,99228.08
2022-10-09T13:07:19.142Z,99224.71
2022-10-09T13:09:45.958Z,99227.37
2022-10-09T13:12:21.842Z,99224.80
2022-10-09T13:14:56.810Z,99224.21
2022-10-09T13:17:34.387Z,99219.55
2022-10-09T13:20:04.972Z,99226.63
2022-10-09T13:22:33.744Z,99225.14
2022-10-09T13:25:02.820Z,99219.19
2022-10-09T13:27:34.976Z,99217.50
2022-10-09T13:30:02.705Z,99214.89
2022-10-09T13:32:29.214Z,99214.12
2022-10-09T13:34:55.714Z,99211.50
2022-10-09T13:37:24.216Z,99215.23
2022-10-09T13:39:55.293Z,99213.77
2022-10-09T13:42:22.796Z,99210.42
2022-10-09T13:44:49.481Z,99205.08
2022-10-09T13:47:18.627Z,99207.80
2022-10-09T13:49:49.071Z,99201.64
2022-10-09T13:52:16.075Z,99203.23
2022-10-09T13:54:42.667Z,99198.11
2022-10-09T13:57:09.307Z,99201.64
2022-10-09T13:59:36.198Z,99200.76
2022-10-09T14:02:02.840Z,99200.58
2022-10-09T14:04:29.455Z,99199.20
2022-10-09T14:06:56.452Z,99198.63
2022-10-09T14:09:23.388Z,99200.33
2022-10-09T14:11:49.910Z,99199.77
2022-10-09T14:14:16.331Z,99199.53
2022-10-09T14:16:43.008Z,99196.39
2022-10-09T14:19:10.572Z,99195.64
2022-10-09T14:21:37.113Z,99195.65
2022-10-09T14:24:04.450Z,99198.39
2022-10-09T14:26:31.569Z,99200.13
2022-10-09T14:29:00.607Z,99199.96
2022-10-09T14:31:27.492Z,99206.41
2022-10-09T14:33:57.806Z,99209.64
2022-10-09T14:36:24.985Z,99202.80
2022-10-09T14:38:51.715Z,99201.55
2022-10-09T14:41:18.486Z,99200.46
2022-10-09T14:43:46.223Z,99196.59
2022-10-09T14:46:15.647Z,99198.70
2022-10-09T14:48:43.879Z,99204.44
2022-10-09T14:51:17.210Z,99202.56
2022-10-09T14:53:44.260Z,99198.40
2022-10-09T14:56:14.101Z,99197.50
2022-10-09T14:58:41.658Z,99197.46
2022-10-09T15:01:14.736Z,99198.89
2022-10-09T15:03:41.770Z,99196.91
2022-10-09T15:06:10.685Z,99197.48
2022-10-09T15:08:40.091Z,99194.66
2022-10-09T15:11:07.348Z,99197.13
2022-10-09T15:13:35.319Z,99199.59
2022-10-09T15:16:22.291Z,99199.64
2022-10-09T15:18:51.034Z,99196.41
2022-10-09T15:21:20.195Z,99195.83
2022-10-09T15:23:47.292Z,99199.38
2022-10-09T15:26:17.413Z,99200.25
2022-10-09T15:28:44.332Z,99204.63
2022-10-09T15:31:19.919Z,99204.55
2022-10-09T15:33:46.356Z,99211.45
2022-10-09T15:36:12.895Z,99212.25
2022-10-09T15:38:40.359Z,99214.35
2022-10-09T15:41:06.898Z,99212.92
2022-10-09T15:43:35.377Z,99212.77
2022-10-09T15:46:03.825Z,99215.76
2022-10-09T15:48:30.415Z,99215.57
2022-10-09T15:50:56.954Z,99216.13
2022-10-09T15:53:24.523Z,99224.67
2022-10-09T15:55:53.019Z,99224.06
2022-10-09T15:58:20.270Z,99225.10
2022-10-09T16:00:49.118Z,99225.73
2022-10-09T16:03:17.463Z,99231.30
2022-10-09T16:05:46.615Z,99230.36
2022-10-09T16:08:13.196Z,99236.44
2022-10-09T16:10:48.594Z,99239.48
2022-10-09T16:13:16.819Z,99238.48
2022-10-09T16:15:45.092Z,99235.81
2022-10-09T16:18:11.938Z,99236.23
2022-10-09T16:20:39.708Z,99240.02
2022-10-09T16:23:07.721Z,99242.49
2022-10-09T16:25:35.060Z,99246.63
2022-10-09T16:28:01.782Z,99245.02
2022-10-09T16:30:28.532Z,99255.33
2022-10-09T16:32:55.134Z,99256.99
2022-10-09T16:35:22.432Z,99257.75
2022-10-09T16:37:51.843Z,99263.48
2022-10-09T16:40:18.590Z,99265.80
2022-10-09T16:42:45.547Z,99269.38
2022-10-09T16:45:12.083Z,99269.80
2022-10-09T16:47:38.871Z,99271.53
2022-10-09T16:50:06.124Z,99268.52
2022-10-09T16:52:33.137Z,99272.88
2022-10-09T16:55:00.594Z,99274.56
2022-10-09T16:57:27.650Z,99272.30
2022-10-09T16:59:54.129Z,99273.42
2022-10-09T17:02:20.605Z,99276.83
2022-10-09T17:04:47.279Z,99275.34
2022-10-09T17:07:14.126Z,99275.39
2022-10-09T17:09:40.667Z,99275.29
2022-10-09T17:12:09.180Z,99277.85
2022-10-09T17:14:40.430Z,99284.71
2022-10-09T17:17:09.403Z,99283.34
2022-10-09T17:19:36.659Z,99288.56
2022-10-09T17:22:03.728Z,99289.24
2022-10-09T17:24:30.583Z,99292.63
2022-10-09T17:26:57.224Z,99298.20
2022-10-09T17:29:24.152Z,99301.70
2022-10-09T17:31:51.359Z,99304.52
2022-10-09T17:34:18.406Z,99308.67
2022-10-09T17:36:45.606Z,99313.21
2022-10-09T17:39:15.574Z,99311.67
2022-10-09T17:41:45.438Z,99312.51
2022-10-09T17:44:12.221Z,99308.59
2022-10-09T17:46:38.666Z,99311.36
2022-10-09T17:49:05.123Z,99317.61
2022-10-09T17:51:34.242Z,99319.46
2022-10-09T17:54:04.931Z,99318.94
2022-10-09T17:56:33.502Z,99318.98
2022-10-09T17:59:01.184Z,99318.94
2022-10-09T18:01:28.079Z,99321.04
2022-10-09T18:03:54.966Z,99324.76
2022-10-09T18:06:22.794Z,99326.84
2022-10-09T18:08:53.570Z,99325.16
2022-10-09T18:11:21.972Z,99325.76
2022-10-09T18:13:49.138Z,99324.74
2022-10-09T18:16:20.668Z,99330.06
2022-10-09T18:18:47.109Z,99329.88
2022-10-09T18:21:16.616Z,99326.56
2022-10-09T18:23:44.409Z,99331.44
2022-10-09T18:26:13.919Z,99336.17
2022-10-09T18:28:42.618Z,99339.89
2022-10-09T18:31:17.959Z,99337.31
2022-10-09T18:33:44.988Z,99339.42
2022-10-09T18:36:16.133Z,99336.11
2022-10-09T18:38:42.671Z,99337.95
2022-10-09T18:41:09.535Z,99340.87
2022-10-09T18:43:36.484Z,99344.48
2022-10-09T18:46:03.515Z,99348.93
2022-10-09T18:48:34.048Z,99355.61
2022-10-09T18:51:02.638Z,99356.50
2022-10-09T18:53:31.297Z,99360.77
2022-10-09T18:55:58.479Z,99367.36
2022-10-09T18:58:24.976Z,99366.52
2022-10-09T19:00:51.580Z,99369.59
2022-10-09T19:03:18.208Z,99365.80
2022-10-09T19:05:44.745Z,99370.33
2022-10-09T19:08:11.290Z,99367.56
2022-10-09T19:10:37.933Z,99375.56
2022-10-09T19:13:04.481Z,99372.77
2022-10-09T19:15:31.015Z,99373.70
2022-10-09T19:17:57.555Z,99371.52
2022-10-09T19:20:25.416Z,99373.83
2022-10-09T19:22:52.064Z,99375.39
2022-10-09T19:25:18.601Z,99379.14
2022-10-09T19:27:45.038Z,99381.41
2022-10-09T19:30:11.987Z,99383.74
2022-10-09T19:32:38.426Z,99386.27
2022-10-09T19:35:05.487Z,99385.60
2022-10-09T19:37:32.016Z,99382.87
2022-10-09T19:39:58.560Z,99386.16
2022-10-09T19:42:25.096Z,99389.45
2022-10-09T19:44:51.852Z,99386.23
2022-10-09T19:47:18.378Z,99384.75
2022-10-09T19:49:44.920Z,99388.29
2022-10-09T19:52:11.598Z,99392.33
2022-10-09T19:54:38.098Z,99392.65
2022-10-09T19:57:04.637Z,99395.11
2022-10-09T19:59:31.303Z,99392.89
2022-10-09T20:01:57.866Z,99398.62
2022-10-09T20:04:24.411Z,99400.06
2022-10-09T20:06:51.721Z,99395.14
2022-10-09T20:09:18.269Z,99397.23
2022-10-09T20:11:44.803Z,99396.73
2022-10-09T20:14:11.333Z,99395.02
2022-10-09T20:16:38.617Z,99400.02
2022-10-09T20:19:05.143Z,99401.98
2022-10-09T20:21:33.526Z,99403.91
2022-10-09T20:24:00.677Z,99402.23
2022-10-09T20:26:27.943Z,99404.16
2022-10-09T20:28:54.473Z,99401.44
2022-10-09T20:31:24.103Z,99402.53
2022-10-09T20:33:51.241Z,99406.38
2022-10-09T20:36:32.717Z,99405.58
2022-10-09T20:39:01.649Z,99403.06
2022-10-09T20:41:30.673Z,99405.35
2022-10-09T20:43:59.500Z,99403.38
2022-10-09T20:46:29.739Z,99404.98
2022-10-09T20:48:56.695Z,99407.63
2022-10-09T20:51:23.854Z,99406.14
2022-10-09T20:53:55.330Z,99406.69
2022-10-09T20:56:22.570Z,99410.02
2022-10-09T20:58:49.214Z,99408.71
2022-10-09T21:01:15.832Z,99407.56
2022-10-09T21:03:43.314Z,99410.52
2022-10-09T21:06:14.059Z,99403.36
2022-10-09T21:08:40.534Z,99402.95
2022-10-09T21:11:10.741Z,99405.39
2022-10-09T21:13:38.614Z,99403.48
2022-10-09T21:16:08.467Z,99403.96
2022-10-09T21:18:35.590Z,99404.95
2022-10-09T21:21:11.233Z,99405.67
2022-10-09T21:23:38.171Z,99408.27
2022-10-09T21:26:05.119Z,99410.02
2022-10-09T21:28:31.650Z,99406.42
2022-10-09T21:30:58.200Z,99406.66
2022-10-09T21:33:24.694Z,99411.88
2022-10-09T21:35:52.101Z,99411.58
2022-10-09T21:38:20.484Z,99411.27
2022-10-09T21:40:47.646Z,99412.36
2022-10-09T21:43:14.123Z,99409.66
2022-10-09T21:45:41.243Z,99412.40
2022-10-09T21:48:08.432Z,99413.62
2022-10-09T21:50:36.579Z,99413.97
2022-10-09T21:53:04.240Z,99409.17
2022-10-09T21:55:31.402Z,99411.06
2022-10-09T21:57:57.938Z,99411.44
2022-10-09T22:00:24.719Z,99410.94
2022-10-09T22:02:51.454Z,99407.70
2022-10-09T22:05:18.395Z,99407.89
2022-10-09T22:07:44.919Z,99408.44
2022-10-09T22:10:12.329Z,99408.98
2022-10-09T22:12:38.940Z,99407.31
2022-10-09T22:15:06.626Z,99401.51
2022-10-09T22:17:33.128Z,99402.73
2022-10-09T22:19:59.619Z,99404.11
2022-10-09T22:22:26.105Z,99407.05
2022-10-09T22:24:52.953Z,99403.47
2022-10-09T22:27:19.906Z,99403.81
2022-10-09T22:29:46.452Z,99406.03
2022-10-09T22:32:13.093Z,99409.65
2022-10-09T22:34:39.629Z,99409.14
2022-10-09T22:37:06.218Z,99408.65
2022-10-09T22:39:32.824Z,99410.90
2022-10-09T22:41:59.236Z,99407.69
2022-10-09T22:44:25.711Z,99412.50
2022-10-09T22:46:52.429Z,99411.13
2022-10-09T22:49:18.958Z,99411.97
2022-10-09T22:51:46.135Z,99411.80
2022-10-09T22:54:13.279Z,99411.94
2022-10-09T22:56:42.834Z,99417.95
2022-10-09T22:59:10.358Z,99418.63
2022-10-09T23:01:47.490Z,99419.15
2022-10-09T23:04:16.450Z,99415.74
2022-10-09T23:06:44.423Z,99417.29
2022-10-09T23:09:14.336Z,99409.27
2022-10-09T23:11:41.596Z,99409.62
2022-10-09T23:14:08.669Z,99409.98
2022-10-09T23:16:35.306Z,99408.46
2022-10-09T23:19:06.501Z,99409.69
2022-10-09T23:21:36.376Z,99411.58
2022-10-09T23:24:03.944Z,99413.84
2022-10-09T23:26:32.123Z,99414.89
2022-10-09T23:29:09.702Z,99417.11
2022-10-09T23:31:36.655Z,99415.77
2022-10-09T23:34:04.775Z,99418.16
2022-10-09T23:36:31.453Z,99421.23
2022-10-09T23:38:59.256Z,99418.00
2022-10-09T23:41:27.946Z,99417.66
2022-10-09T23:43:55.256Z,99416.29
2022-10-09T23:46:24.649Z,99418.02
2022-10-09T23:48:52.503Z,99420.25
2022-10-09T23:51:21.549Z,99416.84
2022-10-09T23:53:48.339Z,99413.77
2022-10-09T23:56:26.146Z,99409.51
2022-10-09T23:58:53.721Z,99414.46
